Time;durP1;ratioP1;P1;durP2;ratioP2;P2;SDS_P1;SDS_P2;PMS_P1;PMS_P2;Temp;Humidity;BMP_temperature;BMP_pressure;BME280_temperature;BME280_humidity;BME280_pressure;Samples;Min_cycle;Max_cycle;Signal;HPM_P1;HPM_P2
2022/08/12 00:43:50;;;;;;;;;9.00;9.00;;;;;;;;5173606;28;9523;-73
2022/08/12 00:46:35;;;;;;;;;8.50;8.50;;;;;;;;5157149;28;8797;-71
2022/08/12 00:49:06;;;;;;;;;8.25;8.25;;;;;;;;5157394;28;8788;-70
2022/08/12 00:54:28;;;;;;;;;8.00;8.00;;;;;;;;5205815;28;8829;-71
2022/08/12 00:57:03;;;;;;;;;9.25;9.25;;;;;;;;5209963;28;8829;-71
2022/08/12 00:59:35;;;;;;;;;9.00;9.00;;;;;;;;5177041;28;9494;-71
2022/08/12 01:02:29;;;;;;;;;8.25;8.25;;;;;;;;5196224;28;8807;-75
2022/08/12 01:13:52;;;;;;;;;8.00;8.00;;;;;;;;5193834;28;8782;-76
2022/08/12 01:16:24;;;;;;;;;10.50;10.50;;;;;;;;5188651;28;8820;-75
2022/08/12 01:19:13;;;;;;;;;8.75;8.75;;;;;;;;5175365;28;8900;-76
2022/08/12 01:22:03;;;;;;;;;9.00;9.00;;;;;;;;5156950;28;8781;-76
2022/08/12 01:24:46;;;;;;;;;9.50;9.50;;;;;;;;5189411;28;9046;-75
2022/08/12 01:27:18;;;;;;;;;7.00;7.00;;;;;;;;5176832;28;9535;-75
2022/08/12 01:30:09;;;;;;;;;10.00;10.00;;;;;;;;5227100;28;8922;-74
2022/08/12 01:32:46;;;;;;;;;9.00;9.00;;;;;;;;5183125;28;8797;-74
2022/08/12 01:35:17;;;;;;;;;14.75;13.75;;;;;;;;5172862;28;8805;-75
2022/08/12 01:37:56;;;;;;;;;9.00;9.00;;;;;;;;5205541;28;8824;-74
2022/08/12 01:40:33;;;;;;;;;13.25;13.00;;;;;;;;5187280;28;8805;-75
2022/08/12 01:43:09;;;;;;;;;11.00;11.00;;;;;;;;5206444;28;8781;-75
2022/08/12 01:45:46;;;;;;;;;11.25;11.25;;;;;;;;5188829;28;8789;-75
2022/08/12 01:48:34;;;;;;;;;9.50;9.50;;;;;;;;5172555;28;8789;-75
2022/08/12 01:51:20;;;;;;;;;9.75;9.75;;;;;;;;5188662;28;8805;-73
2022/08/12 01:54:12;;;;;;;;;10.25;10.25;;;;;;;;5175326;28;8801;-73
2022/08/12 01:56:54;;;;;;;;;11.00;11.00;;;;;;;;5162274;28;8939;-74
2022/08/12 01:59:48;;;;;;;;;9.00;9.00;;;;;;;;5178381;28;8807;-73
2022/08/12 02:02:26;;;;;;;;;7.50;7.50;;;;;;;;5194766;28;8783;-72
2022/08/12 02:11:29;;;;;;;;;6.00;6.00;;;;;;;;5226687;28;8933;-72
2022/08/12 02:14:20;;;;;;;;;6.00;6.00;;;;;;;;5186623;28;9559;-72
2022/08/12 02:17:04;;;;;;;;;6.50;6.50;;;;;;;;5155789;28;8825;-72
2022/08/12 02:20:01;;;;;;;;;6.00;6.00;;;;;;;;5188290;28;8777;-73
2022/08/12 02:22:51;;;;;;;;;5.75;5.75;;;;;;;;5174739;28;8765;-73
2022/08/12 02:25:28;;;;;;;;;10.25;10.25;;;;;;;;5171892;28;8785;-73
2022/08/12 02:28:00;;;;;;;;;11.00;11.00;;;;;;;;5187955;28;8811;-75
2022/08/12 02:30:32;;;;;;;;;10.00;9.00;;;;;;;;5209102;28;9537;-71
2022/08/12 02:33:04;;;;;;;;;9.50;9.50;;;;;;;;5189749;28;9541;-72
2022/08/12 02:35:35;;;;;;;;;9.25;8.75;;;;;;;;5191161;28;8823;-72
2022/08/12 02:38:08;;;;;;;;;9.00;9.00;;;;;;;;5175437;28;8775;-72
2022/08/12 02:40:41;;;;;;;;;9.00;9.00;;;;;;;;5208053;28;8802;-72
2022/08/12 02:43:34;;;;;;;;;14.25;13.50;;;;;;;;5192795;28;8770;-72
2022/08/12 02:46:08;;;;;;;;;8.25;8.25;;;;;;;;5165006;28;8861;-72
2022/08/12 02:48:45;;;;;;;;;12.75;12.50;;;;;;;;5187390;28;8793;-72
2022/08/12 02:51:19;;;;;;;;;13.75;13.75;;;;;;;;5172536;28;8797;-72
2022/08/12 02:53:51;;;;;;;;;10.25;10.25;;;;;;;;5188841;28;8923;-71
2022/08/12 02:56:22;;;;;;;;;8.00;8.00;;;;;;;;5205258;28;8828;-71
2022/08/12 02:58:54;;;;;;;;;6.00;6.00;;;;;;;;5204934;28;8769;-71
2022/08/12 03:01:32;;;;;;;;;8.00;8.00;;;;;;;;5222896;28;8794;-72
2022/08/12 03:04:06;;;;;;;;;10.75;10.75;;;;;;;;5166073;28;8789;-72
2022/08/12 03:06:39;;;;;;;;;11.00;11.00;;;;;;;;5172019;28;8812;-72
2022/08/12 03:09:12;;;;;;;;;13.00;13.00;;;;;;;;5156206;28;8819;-72
2022/08/12 03:11:44;;;;;;;;;12.00;12.00;;;;;;;;5173579;28;8807;-72
2022/08/12 03:14:18;;;;;;;;;10.75;10.75;;;;;;;;5204480;28;8797;-72
2022/08/12 03:16:56;;;;;;;;;8.25;8.25;;;;;;;;5152768;28;8817;-72
2022/08/12 03:19:47;;;;;;;;;6.00;6.00;;;;;;;;5181740;28;8815;-74
2022/08/12 03:22:19;;;;;;;;;8.00;8.00;;;;;;;;5190928;28;8791;-73
2022/08/12 03:24:51;;;;;;;;;9.50;9.50;;;;;;;;5206540;28;8833;-72
2022/08/12 03:27:22;;;;;;;;;6.00;6.00;;;;;;;;5207773;28;8779;-71
2022/08/12 03:29:56;;;;;;;;;8.00;8.00;;;;;;;;5207797;28;8776;-72
2022/08/12 03:32:29;;;;;;;;;6.50;6.50;;;;;;;;5207659;28;8817;-72
2022/08/12 03:35:01;;;;;;;;;7.00;6.25;;;;;;;;5207624;28;9513;-72
2022/08/12 03:37:33;;;;;;;;;5.00;5.00;;;;;;;;5174375;28;8814;-71
2022/08/12 03:40:07;;;;;;;;;6.00;6.00;;;;;;;;5206974;28;8814;-72
2022/08/12 03:42:50;;;;;;;;;6.00;6.00;;;;;;;;5205545;28;8833;-74
2022/08/12 04:02:25;;;;;;;;;4.25;4.25;;;;;;;;5189023;28;8925;-74
2022/08/12 04:04:56;;;;;;;;;6.00;6.00;;;;;;;;5220816;28;8817;-77
2022/08/12 04:07:30;;;;;;;;;5.75;5.75;;;;;;;;5193077;28;8791;-76
2022/08/12 04:10:20;;;;;;;;;8.00;8.00;;;;;;;;5197281;28;8897;-77
2022/08/12 04:15:44;;;;;;;;;5.25;5.25;;;;;;;;5194580;28;8787;-78
2022/08/12 04:18:15;;;;;;;;;2.25;2.25;;;;;;;;5193455;28;8813;-80
2022/08/12 04:20:47;;;;;;;;;6.75;6.75;;;;;;;;5211465;28;8826;-80
2022/08/12 04:23:19;;;;;;;;;8.00;8.00;;;;;;;;5208833;28;8913;-79
2022/08/12 04:25:51;;;;;;;;;6.00;6.00;;;;;;;;5194614;28;8787;-78
2022/08/12 04:28:26;;;;;;;;;6.00;6.00;;;;;;;;5228593;28;8794;-78
2022/08/12 04:30:57;;;;;;;;;6.00;6.00;;;;;;;;5210736;28;8790;-78
2022/08/12 04:33:31;;;;;;;;;4.75;4.75;;;;;;;;5194628;28;8999;-77
2022/08/12 04:36:02;;;;;;;;;3.50;3.50;;;;;;;;5210374;28;8842;-78
2022/08/12 04:38:33;;;;;;;;;5.00;5.00;;;;;;;;5192225;28;8980;-79
2022/08/12 04:41:04;;;;;;;;;5.25;5.25;;;;;;;;5207982;28;8790;-80
2022/08/12 04:43:37;;;;;;;;;8.00;8.00;;;;;;;;5157050;28;8821;-82
2022/08/12 04:46:08;;;;;;;;;8.75;8.25;;;;;;;;5206818;28;9589;-78
2022/08/12 04:48:40;;;;;;;;;6.75;6.75;;;;;;;;5173046;28;8783;-76
2022/08/12 04:51:30;;;;;;;;;5.25;5.25;;;;;;;;5174587;28;8804;-79
2022/08/12 04:54:03;;;;;;;;;7.25;7.25;;;;;;;;5155959;28;8785;-78
2022/08/12 04:56:35;;;;;;;;;4.75;4.75;;;;;;;;5193760;28;8968;-77
2022/08/12 04:59:06;;;;;;;;;6.00;6.00;;;;;;;;5192305;28;8779;-76
2022/08/12 05:01:38;;;;;;;;;6.00;6.00;;;;;;;;5180919;28;8812;-76
2022/08/12 05:04:09;;;;;;;;;5.50;5.50;;;;;;;;5204385;28;8809;-77
2022/08/12 05:06:41;;;;;;;;;5.25;5.25;;;;;;;;5187769;28;8874;-78
2022/08/12 05:09:14;;;;;;;;;8.00;8.00;;;;;;;;5171280;28;8777;-77
2022/08/12 05:11:51;;;;;;;;;4.00;4.00;;;;;;;;5205413;28;8792;-77
2022/08/12 05:14:22;;;;;;;;;5.50;5.50;;;;;;;;5187834;28;8777;-76
2022/08/12 05:16:54;;;;;;;;;6.00;6.00;;;;;;;;5168270;28;8827;-76
2022/08/12 05:19:25;;;;;;;;;6.00;6.00;;;;;;;;5191591;28;8802;-77
2022/08/12 05:21:57;;;;;;;;;7.25;7.00;;;;;;;;5190203;28;8789;-78
2022/08/12 05:24:28;;;;;;;;;6.00;6.00;;;;;;;;5187613;28;8803;-77
2022/08/12 05:26:59;;;;;;;;;6.00;6.00;;;;;;;;5170888;28;8801;-77
2022/08/12 05:29:30;;;;;;;;;9.25;9.25;;;;;;;;5203871;28;8789;-77
2022/08/12 05:32:01;;;;;;;;;7.00;7.00;;;;;;;;5204520;28;9512;-75
2022/08/12 05:34:33;;;;;;;;;8.00;8.00;;;;;;;;5205308;28;8836;-76
2022/08/12 05:37:04;;;;;;;;;6.00;6.00;;;;;;;;5190264;28;8823;-76
2022/08/12 05:39:54;;;;;;;;;7.00;5.75;;;;;;;;5205835;28;8840;-76
2022/08/12 05:42:44;;;;;;;;;8.25;8.00;;;;;;;;5204366;28;8935;-76
2022/08/12 05:45:15;;;;;;;;;4.67;4.67;;;;;;;;5170916;28;8993;-77
2022/08/12 05:47:46;;;;;;;;;5.00;5.00;;;;;;;;5203618;28;9665;-77
2022/08/12 05:50:17;;;;;;;;;6.75;6.75;;;;;;;;5187067;28;9515;-78
2022/08/12 05:52:48;;;;;;;;;6.00;6.00;;;;;;;;5170215;28;9542;-77
2022/08/12 05:55:21;;;;;;;;;7.75;7.75;;;;;;;;5200243;28;8968;-77
2022/08/12 05:57:54;;;;;;;;;11.00;11.00;;;;;;;;5207123;28;9100;-78
2022/08/12 06:00:25;;;;;;;;;7.75;7.75;;;;;;;;5186927;28;8812;-77
2022/08/12 06:03:00;;;;;;;;;7.50;7.50;;;;;;;;5170345;28;8844;-77
2022/08/12 06:05:33;;;;;;;;;7.50;7.50;;;;;;;;5154045;28;8789;-78
2022/08/12 06:08:05;;;;;;;;;12.00;12.00;;;;;;;;5170145;28;9586;-77
2022/08/12 06:10:37;;;;;;;;;6.50;6.50;;;;;;;;5186371;28;8836;-78
2022/08/12 06:13:08;;;;;;;;;6.00;6.00;;;;;;;;5201261;28;8818;-77
2022/08/12 06:15:39;;;;;;;;;7.00;7.00;;;;;;;;5201359;28;8865;-78
2022/08/12 06:18:12;;;;;;;;;3.75;3.75;;;;;;;;5170091;28;8852;-77
2022/08/12 06:20:46;;;;;;;;;4.00;4.00;;;;;;;;5163862;28;9542;-78
2022/08/12 06:23:18;;;;;;;;;6.25;6.25;;;;;;;;5174255;28;8849;-79
2022/08/12 06:25:50;;;;;;;;;2.25;2.25;;;;;;;;5224333;28;8779;-78
2022/08/12 06:28:21;;;;;;;;;3.00;3.00;;;;;;;;5206423;28;8811;-79
2022/08/12 06:30:52;;;;;;;;;4.00;4.00;;;;;;;;5189909;28;8807;-77
2022/08/12 06:33:23;;;;;;;;;5.00;5.00;;;;;;;;5189433;28;9542;-76
2022/08/12 06:35:55;;;;;;;;;8.00;8.00;;;;;;;;5206612;28;8782;-76
2022/08/12 06:38:26;;;;;;;;;4.00;4.00;;;;;;;;5190226;28;8783;-76
2022/08/12 06:44:07;;;;;;;;;7.00;7.00;;;;;;;;5206175;28;9608;-74
2022/08/12 06:46:57;;;;;;;;;5.50;5.50;;;;;;;;5208873;28;8854;-76
2022/08/12 06:49:35;;;;;;;;;6.25;6.25;;;;;;;;5193184;28;8788;-74
2022/08/12 06:52:06;;;;;;;;;2.75;2.75;;;;;;;;5186330;28;8776;-75
2022/08/12 06:54:55;;;;;;;;;6.00;6.00;;;;;;;;5186024;28;8955;-75
2022/08/12 06:58:05;;;;;;;;;5.50;5.50;;;;;;;;5188773;28;8821;-73
2022/08/12 07:00:36;;;;;;;;;5.50;5.50;;;;;;;;5177210;28;8819;-78
2022/08/12 07:03:29;;;;;;;;;6.00;6.00;;;;;;;;5184326;28;8797;-76
2022/08/12 07:06:05;;;;;;;;;2.00;2.00;;;;;;;;5192144;28;8902;-76
2022/08/12 07:08:36;;;;;;;;;4.75;4.75;;;;;;;;5206617;28;9508;-76
2022/08/12 07:11:08;;;;;;;;;5.25;5.25;;;;;;;;5169406;28;8804;-75
2022/08/12 07:13:42;;;;;;;;;5.00;5.00;;;;;;;;5170213;28;8796;-75
2022/08/12 07:19:21;;;;;;;;;5.25;5.25;;;;;;;;5223862;28;8822;-76
2022/08/12 07:21:52;;;;;;;;;3.25;3.25;;;;;;;;5205857;28;9537;-75
2022/08/12 07:24:24;;;;;;;;;5.25;5.25;;;;;;;;5204757;28;9505;-76
2022/08/12 07:26:55;;;;;;;;;4.00;4.00;;;;;;;;5192305;28;8835;-76
2022/08/12 07:29:27;;;;;;;;;4.50;4.50;;;;;;;;5205022;28;8787;-74
2022/08/12 07:32:17;;;;;;;;;4.75;4.75;;;;;;;;5201795;28;8845;-77
2022/08/12 07:34:48;;;;;;;;;5.50;5.50;;;;;;;;5206500;28;8844;-76
2022/08/12 07:37:20;;;;;;;;;4.50;4.50;;;;;;;;5170724;28;8809;-75
2022/08/12 07:39:51;;;;;;;;;5.00;5.00;;;;;;;;5208123;28;8785;-74
2022/08/12 07:42:42;;;;;;;;;4.50;4.50;;;;;;;;5195491;28;8796;-76
2022/08/12 07:45:14;;;;;;;;;4.00;4.00;;;;;;;;5195089;28;8787;-75
2022/08/12 07:47:46;;;;;;;;;5.00;5.00;;;;;;;;5194835;28;8783;-74
2022/08/12 07:50:36;;;;;;;;;6.75;6.75;;;;;;;;5211541;28;8910;-74
2022/08/12 07:53:08;;;;;;;;;5.00;5.00;;;;;;;;5211703;28;8941;-76
2022/08/12 07:55:43;;;;;;;;;4.00;4.00;;;;;;;;5194895;28;8825;-75
2022/08/12 07:58:17;;;;;;;;;3.00;3.00;;;;;;;;5170837;28;8823;-75
2022/08/12 08:00:49;;;;;;;;;4.00;4.00;;;;;;;;5190900;28;9675;-75
2022/08/12 08:03:24;;;;;;;;;4.75;4.75;;;;;;;;5190463;28;8805;-74
2022/08/12 08:05:55;;;;;;;;;7.00;7.00;;;;;;;;5190770;28;8781;-74
2022/08/12 08:08:27;;;;;;;;;7.00;7.00;;;;;;;;5190451;28;9578;-74
2022/08/12 08:14:09;;;;;;;;;4.00;4.00;;;;;;;;5203328;28;8830;-75
2022/08/12 08:16:40;;;;;;;;;5.25;5.25;;;;;;;;5175017;28;9532;-75
2022/08/12 08:19:32;;;;;;;;;4.50;4.50;;;;;;;;5197242;28;8811;-76
2022/08/12 08:22:21;;;;;;;;;3.25;3.25;;;;;;;;5190153;28;8777;-74
2022/08/12 08:25:12;;;;;;;;;3.75;3.75;;;;;;;;5210582;28;8811;-74
2022/08/12 08:27:44;;;;;;;;;3.50;3.50;;;;;;;;5229031;28;8783;-74
2022/08/12 08:30:16;;;;;;;;;3.00;3.00;;;;;;;;5178043;28;8860;-74
2022/08/12 08:32:47;;;;;;;;;3.00;3.00;;;;;;;;5177708;28;8806;-74
2022/08/12 08:35:25;;;;;;;;;2.00;2.00;;;;;;;;5194887;28;8836;-74
2022/08/12 08:38:06;;;;;;;;;5.50;5.50;;;;;;;;5200706;28;8849;-75
2022/08/12 08:43:28;;;;;;;;;3.00;3.00;;;;;;;;5207732;28;8983;-74
2022/08/12 08:46:04;;;;;;;;;3.25;3.25;;;;;;;;5189860;28;9551;-74
2022/08/12 08:48:35;;;;;;;;;4.25;4.25;;;;;;;;5190060;28;8855;-74
2022/08/12 08:51:25;;;;;;;;;3.50;3.50;;;;;;;;5174882;28;8785;-74
2022/08/12 08:53:56;;;;;;;;;3.50;3.50;;;;;;;;5189658;28;8797;-74
2022/08/12 08:56:29;;;;;;;;;1.00;1.00;;;;;;;;5223054;28;8844;-74
2022/08/12 08:59:00;;;;;;;;;3.00;3.00;;;;;;;;5210973;28;9545;-74
2022/08/12 09:01:31;;;;;;;;;2.00;2.00;;;;;;;;5195051;28;8785;-74
2022/08/12 09:04:02;;;;;;;;;4.00;4.00;;;;;;;;5194928;28;8785;-74
2022/08/12 09:06:55;;;;;;;;;4.25;4.25;;;;;;;;5176717;28;8793;-73
2022/08/12 09:09:26;;;;;;;;;1.25;1.25;;;;;;;;5174076;28;8900;-73
2022/08/12 09:14:47;;;;;;;;;3.00;3.00;;;;;;;;5189638;28;8789;-73
2022/08/12 09:17:18;;;;;;;;;7.50;7.50;;;;;;;;5207631;28;9523;-74
2022/08/12 09:20:08;;;;;;;;;4.00;4.00;;;;;;;;5193745;28;8820;-74
2022/08/12 09:22:42;;;;;;;;;5.00;5.00;;;;;;;;5174418;28;8800;-74
2022/08/12 09:25:13;;;;;;;;;4.00;4.00;;;;;;;;5205625;28;8778;-74
2022/08/12 09:27:44;;;;;;;;;3.00;3.00;;;;;;;;5188898;28;8793;-74
2022/08/12 09:30:16;;;;;;;;;2.00;2.00;;;;;;;;5173047;28;8781;-74
2022/08/12 09:32:51;;;;;;;;;2.00;2.00;;;;;;;;5173147;28;8821;-74
2022/08/12 09:35:24;;;;;;;;;3.25;3.25;;;;;;;;5173059;28;8823;-74
2022/08/12 09:37:55;;;;;;;;;2.75;2.75;;;;;;;;5189532;28;8817;-74
2022/08/12 09:40:26;;;;;;;;;2.00;2.00;;;;;;;;5191930;28;8782;-74
2022/08/12 09:45:48;;;;;;;;;3.50;3.50;;;;;;;;5190858;28;12182;-74
2022/08/12 09:48:19;;;;;;;;;4.00;4.00;;;;;;;;5173033;28;8927;-73
2022/08/12 09:50:50;;;;;;;;;2.25;2.25;;;;;;;;5206379;28;8912;-74
2022/08/12 09:53:23;;;;;;;;;1.00;1.00;;;;;;;;5188559;28;8785;-74
2022/08/12 09:55:55;;;;;;;;;2.25;2.25;;;;;;;;5188408;28;8818;-74
2022/08/12 09:58:29;;;;;;;;;2.75;2.75;;;;;;;;5188587;28;9572;-74
2022/08/12 10:01:03;;;;;;;;;3.25;3.25;;;;;;;;5205748;28;8793;-74
2022/08/12 10:03:35;;;;;;;;;2.00;2.00;;;;;;;;5188579;28;8773;-74
2022/08/12 10:06:06;;;;;;;;;3.00;3.00;;;;;;;;5188187;28;8796;-74
2022/08/12 10:08:38;;;;;;;;;5.00;4.00;;;;;;;;5205984;28;8801;-74
2022/08/12 10:14:15;;;;;;;;;3.25;3.25;;;;;;;;5130773;28;8880;-74
2022/08/12 10:16:47;;;;;;;;;7.33;7.33;;;;;;;;5180859;28;8821;-74
2022/08/12 10:19:20;;;;;;;;;3.25;3.25;;;;;;;;5205574;28;8872;-74
2022/08/12 10:21:51;;;;;;;;;13.00;12.50;;;;;;;;5187880;28;8773;-74
2022/08/12 10:24:22;;;;;;;;;3.00;3.00;;;;;;;;5171956;28;8790;-74
2022/08/12 10:29:49;;;;;;;;;2.00;2.00;;;;;;;;5193040;28;8805;-74
2022/08/12 10:32:31;;;;;;;;;3.50;3.50;;;;;;;;5205135;28;8886;-74
2022/08/12 10:35:02;;;;;;;;;3.00;3.00;;;;;;;;5204329;28;8813;-74
2022/08/12 10:37:34;;;;;;;;;2.00;2.00;;;;;;;;5204140;28;9621;-74
2022/08/12 10:40:05;;;;;;;;;2.75;2.75;;;;;;;;5171578;28;8801;-74
2022/08/12 10:45:30;;;;;;;;;4.25;4.25;;;;;;;;5193764;28;8816;-74
2022/08/12 10:48:01;;;;;;;;;3.00;3.00;;;;;;;;5212567;28;8850;-74
2022/08/12 10:50:51;;;;;;;;;1.75;1.75;;;;;;;;5206814;28;8819;-74
2022/08/12 10:53:23;;;;;;;;;4.00;4.00;;;;;;;;5187775;28;8785;-74
2022/08/12 10:55:54;;;;;;;;;6.00;6.00;;;;;;;;5220401;28;11491;-74
2022/08/12 10:58:25;;;;;;;;;1.33;1.33;;;;;;;;5203942;28;8924;-74
2022/08/12 11:00:55;;;;;;;;;2.00;2.00;;;;;;;;5205249;28;11157;-74
2022/08/12 11:03:26;;;;;;;;;4.00;4.00;;;;;;;;5187477;28;10610;-74
2022/08/12 11:05:57;;;;;;;;;2.00;2.00;;;;;;;;5204982;28;11443;-74
2022/08/12 11:08:28;;;;;;;;;4.33;4.33;;;;;;;;5187355;28;9978;-74
2022/08/12 11:10:59;;;;;;;;;2.50;2.50;;;;;;;;5204856;28;11458;-74
2022/08/12 11:13:31;;;;;;;;;4.33;4.33;;;;;;;;5202761;28;8786;-74
2022/08/12 11:16:03;;;;;;;;;2.00;2.00;;;;;;;;5187243;28;11689;-74
2022/08/12 11:18:34;;;;;;;;;3.00;3.00;;;;;;;;5187265;28;8797;-74
2022/08/12 11:21:05;;;;;;;;;3.00;2.67;;;;;;;;5204970;28;8862;-74
2022/08/12 11:23:36;;;;;;;;;2.00;2.00;;;;;;;;5203958;28;9549;-74
2022/08/12 11:26:07;;;;;;;;;4.00;4.00;;;;;;;;5187208;28;8813;-75
2022/08/12 11:28:38;;;;;;;;;2.00;2.00;;;;;;;;5170804;28;8825;-74
2022/08/12 11:31:09;;;;;;;;;2.25;2.25;;;;;;;;5204708;28;11544;-74
2022/08/12 11:33:42;;;;;;;;;4.00;4.00;;;;;;;;5205506;28;9538;-74
2022/08/12 11:36:14;;;;;;;;;1.00;1.00;;;;;;;;5187337;28;8782;-74
2022/08/12 11:39:03;;;;;;;;;3.00;3.00;;;;;;;;5217865;28;8774;-74
2022/08/12 11:41:53;;;;;;;;;7.00;7.00;;;;;;;;5205103;28;8979;-74
2022/08/12 11:44:24;;;;;;;;;5.00;5.00;;;;;;;;5170897;28;8916;-74
2022/08/12 11:46:56;;;;;;;;;3.33;3.33;;;;;;;;5187069;28;9118;-74
2022/08/12 11:49:28;;;;;;;;;3.25;3.25;;;;;;;;5186784;28;10654;-74
2022/08/12 11:52:03;;;;;;;;;7.25;5.00;;;;;;;;5171073;28;8801;-74
2022/08/12 11:54:33;;;;;;;;;4.50;4.50;;;;;;;;5170516;28;8789;-74
2022/08/12 11:57:04;;;;;;;;;3.00;3.00;;;;;;;;5170411;28;8801;-73
2022/08/12 11:59:35;;;;;;;;;2.50;2.50;;;;;;;;5170357;28;8907;-74
2022/08/12 12:02:06;;;;;;;;;2.00;2.00;;;;;;;;5187023;28;8904;-74
2022/08/12 12:04:37;;;;;;;;;6.00;6.00;;;;;;;;5170616;28;8804;-74
2022/08/12 12:07:08;;;;;;;;;8.00;8.00;;;;;;;;5204699;28;11535;-74
2022/08/12 12:09:39;;;;;;;;;6.67;6.67;;;;;;;;5186955;28;8843;-74
2022/08/12 12:12:10;;;;;;;;;4.67;4.67;;;;;;;;5186336;28;11433;-74
2022/08/12 12:14:59;;;;;;;;;8.25;8.25;;;;;;;;5186781;28;10707;-74
2022/08/12 12:17:30;;;;;;;;;10.75;10.75;;;;;;;;5204725;28;8833;-74
2022/08/12 12:20:01;;;;;;;;;5.67;5.67;;;;;;;;5203222;28;8785;-74
2022/08/12 12:22:32;;;;;;;;;6.00;6.00;;;;;;;;5203152;28;8820;-74
2022/08/12 12:25:03;;;;;;;;;3.50;3.50;;;;;;;;5204336;28;8785;-74
2022/08/12 12:27:50;;;;;;;;;2.75;2.75;;;;;;;;5173727;28;8781;-73
2022/08/12 12:30:21;;;;;;;;;2.25;2.25;;;;;;;;5190100;28;8777;-74
2022/08/12 12:32:52;;;;;;;;;2.00;2.00;;;;;;;;5206325;28;8928;-74
2022/08/12 12:35:23;;;;;;;;;3.00;3.00;;;;;;;;5223013;28;9885;-74
2022/08/12 12:37:56;;;;;;;;;3.00;3.00;;;;;;;;5190408;28;8839;-74
2022/08/12 12:40:27;;;;;;;;;2.00;2.00;;;;;;;;5173947;28;8855;-74
2022/08/12 12:42:58;;;;;;;;;4.00;4.00;;;;;;;;5189959;28;8860;-74
2022/08/12 12:45:49;;;;;;;;;3.00;3.00;;;;;;;;5193184;28;8777;-74
2022/08/12 12:48:20;;;;;;;;;4.00;4.00;;;;;;;;5208282;28;8781;-73
2022/08/12 12:53:45;;;;;;;;;1.50;1.50;;;;;;;;5207409;28;8797;-74
2022/08/12 12:56:19;;;;;;;;;4.00;4.00;;;;;;;;5189735;28;8777;-74
2022/08/12 12:58:51;;;;;;;;;4.00;4.00;;;;;;;;5157406;28;9523;-73
2022/08/12 13:01:25;;;;;;;;;2.50;2.50;;;;;;;;5173216;28;8804;-73
2022/08/12 13:03:56;;;;;;;;;2.75;2.75;;;;;;;;5173204;28;8793;-73
2022/08/12 13:06:30;;;;;;;;;2.50;2.50;;;;;;;;5173246;28;8802;-74
2022/08/12 13:09:01;;;;;;;;;10.00;10.00;;;;;;;;5173109;28;9453;-73
2022/08/12 13:11:32;;;;;;;;;6.50;6.50;;;;;;;;5206092;28;8777;-73
2022/08/12 13:14:05;;;;;;;;;48.60;40.80;;;;;;;;5156801;28;8797;-75
2022/08/12 13:16:37;;;;;;;;;20.25;20.25;;;;;;;;5188969;28;8967;-75
2022/08/12 13:19:08;;;;;;;;;31.75;29.75;;;;;;;;5189344;28;8777;-75
2022/08/12 13:22:15;;;;;;;;;11.00;11.00;;;;;;;;5222328;28;8797;-74
2022/08/12 13:24:30;;;;;;;;;5.75;5.75;;;;;;;;5189089;28;8800;-75
2022/08/12 13:27:01;;;;;;;;;2.75;2.75;;;;;;;;5221935;28;8789;-74
2022/08/12 13:29:32;;;;;;;;;3.25;3.25;;;;;;;;5173368;28;8846;-75
2022/08/12 13:32:04;;;;;;;;;4.00;4.00;;;;;;;;5188959;28;8773;-75
2022/08/12 13:34:35;;;;;;;;;4.00;4.00;;;;;;;;5206685;28;12163;-73
2022/08/12 13:37:06;;;;;;;;;2.67;2.67;;;;;;;;5188253;28;8862;-73
2022/08/12 13:39:38;;;;;;;;;1.00;1.00;;;;;;;;5221806;28;8786;-74
2022/08/12 13:42:09;;;;;;;;;2.75;2.75;;;;;;;;5188844;28;9594;-73
2022/08/12 13:44:40;;;;;;;;;3.50;3.50;;;;;;;;5172429;28;8927;-78
2022/08/12 13:47:11;;;;;;;;;3.00;3.00;;;;;;;;5188813;28;8812;-73
2022/08/12 13:49:42;;;;;;;;;3.00;3.00;;;;;;;;5189778;28;9651;-75
2022/08/12 13:52:13;;;;;;;;;2.50;2.50;;;;;;;;5188733;28;8804;-74
2022/08/12 13:54:46;;;;;;;;;4.50;4.50;;;;;;;;5206533;28;8777;-75
2022/08/12 13:57:17;;;;;;;;;3.25;3.25;;;;;;;;5172202;28;8817;-74
2022/08/12 13:59:48;;;;;;;;;3.50;3.50;;;;;;;;5204582;28;8821;-75
2022/08/12 14:02:19;;;;;;;;;15.00;15.00;;;;;;;;5204814;28;8816;-75
2022/08/12 14:04:51;;;;;;;;;16.25;16.00;;;;;;;;5202879;28;11489;-74
2022/08/12 14:07:23;;;;;;;;;23.75;23.25;;;;;;;;5226875;28;8779;-74
2022/08/12 14:12:46;;;;;;;;;7.50;7.50;;;;;;;;5226607;28;8779;-74
2022/08/12 14:15:17;;;;;;;;;14.75;14.75;;;;;;;;5192672;28;8779;-75
2022/08/12 14:17:48;;;;;;;;;17.75;17.75;;;;;;;;5232331;28;8842;-75
2022/08/12 14:20:19;;;;;;;;;15.75;15.75;;;;;;;;5197513;28;8781;-75
2022/08/12 14:23:09;;;;;;;;;8.00;8.00;;;;;;;;5197586;28;8810;-75
2022/08/12 14:25:40;;;;;;;;;6.50;6.50;;;;;;;;5208393;28;8759;-75
2022/08/12 14:28:15;;;;;;;;;5.00;5.00;;;;;;;;5208711;28;8786;-75
2022/08/12 14:30:55;;;;;;;;;5.25;5.25;;;;;;;;5208705;28;9668;-75
2022/08/12 14:33:32;;;;;;;;;4.50;4.50;;;;;;;;5192058;28;8903;-74
2022/08/12 14:36:22;;;;;;;;;2.25;2.25;;;;;;;;5211405;28;8775;-75
2022/08/12 14:39:13;;;;;;;;;3.00;3.00;;;;;;;;5222266;28;8803;-75
2022/08/12 14:41:44;;;;;;;;;6.00;6.00;;;;;;;;5206643;28;8906;-75
2022/08/12 14:44:16;;;;;;;;;20.50;20.50;;;;;;;;5189428;28;8916;-76
2022/08/12 14:46:48;;;;;;;;;6.50;6.50;;;;;;;;5203647;28;8773;-75
2022/08/12 14:49:20;;;;;;;;;5.50;5.50;;;;;;;;5169732;28;8916;-75
2022/08/12 14:51:50;;;;;;;;;4.00;4.00;;;;;;;;5202157;28;8785;-75
2022/08/12 14:54:21;;;;;;;;;5.00;5.00;;;;;;;;5185801;28;8823;-74
2022/08/12 14:56:52;;;;;;;;;4.67;4.67;;;;;;;;5185420;28;11377;-75
2022/08/12 15:02:19;;;;;;;;;5.00;5.00;;;;;;;;5205539;28;8803;-75
2022/08/12 15:04:57;;;;;;;;;5.50;5.50;;;;;;;;5189580;28;8783;-77
2022/08/12 15:07:48;;;;;;;;;3.00;3.00;;;;;;;;5224168;28;8791;-75
2022/08/12 15:10:19;;;;;;;;;4.25;4.25;;;;;;;;5223996;28;8908;-76
2022/08/12 15:12:50;;;;;;;;;4.00;4.00;;;;;;;;5189570;28;8783;-75
2022/08/12 15:15:21;;;;;;;;;8.50;8.50;;;;;;;;5205850;28;8786;-75
2022/08/12 15:17:58;;;;;;;;;6.33;6.33;;;;;;;;5193812;28;8824;-75
2022/08/12 15:20:48;;;;;;;;;16.50;16.50;;;;;;;;5172008;28;11512;-76
2022/08/12 15:23:21;;;;;;;;;17.75;17.50;;;;;;;;5187377;28;8823;-75
2022/08/12 15:26:11;;;;;;;;;23.25;23.25;;;;;;;;5202733;28;8805;-75
2022/08/12 15:28:43;;;;;;;;;21.50;21.50;;;;;;;;5198592;28;8795;-75
2022/08/12 15:31:16;;;;;;;;;7.25;7.25;;;;;;;;5206280;28;8934;-75
2022/08/12 15:33:48;;;;;;;;;5.50;5.50;;;;;;;;5173360;28;9553;-76
2022/08/12 15:36:20;;;;;;;;;7.00;7.00;;;;;;;;5173111;28;8933;-76
2022/08/12 15:38:50;;;;;;;;;6.00;6.00;;;;;;;;5205631;28;8856;-76
2022/08/12 15:41:40;;;;;;;;;4.00;4.00;;;;;;;;5223119;28;8822;-76
2022/08/12 15:44:30;;;;;;;;;4.25;4.25;;;;;;;;5191945;28;8895;-77
2022/08/12 15:47:01;;;;;;;;;4.50;4.50;;;;;;;;5205871;28;8802;-76
2022/08/12 15:49:32;;;;;;;;;4.67;4.67;;;;;;;;5189421;28;8798;-76
2022/08/12 15:52:03;;;;;;;;;3.67;3.67;;;;;;;;5205812;28;9646;-77
2022/08/12 15:54:52;;;;;;;;;5.00;5.00;;;;;;;;5205433;28;11455;-76
2022/08/12 15:57:23;;;;;;;;;3.50;3.50;;;;;;;;5223340;28;8842;-76
2022/08/12 15:59:55;;;;;;;;;4.67;4.67;;;;;;;;5204428;28;8839;-76
2022/08/12 16:02:26;;;;;;;;;6.00;6.00;;;;;;;;5190315;28;11187;-75
2022/08/12 16:04:57;;;;;;;;;6.25;6.25;;;;;;;;5236397;28;8787;-75
2022/08/12 16:07:28;;;;;;;;;4.50;4.50;;;;;;;;5215545;28;8833;-75
2022/08/12 16:09:59;;;;;;;;;4.50;4.50;;;;;;;;5201430;28;8795;-74
2022/08/12 16:12:31;;;;;;;;;3.00;3.00;;;;;;;;5206406;28;8793;-75
2022/08/12 16:15:02;;;;;;;;;6.00;6.00;;;;;;;;5174915;28;8807;-75
2022/08/12 16:17:33;;;;;;;;;8.50;8.50;;;;;;;;5196703;28;8877;-75
2022/08/12 16:20:10;;;;;;;;;6.00;6.00;;;;;;;;5210530;28;8794;-74
2022/08/12 16:22:46;;;;;;;;;9.75;9.75;;;;;;;;5195202;28;11409;-74
2022/08/12 16:25:19;;;;;;;;;5.00;5.00;;;;;;;;5230500;28;9556;-78
2022/08/12 16:27:50;;;;;;;;;6.00;6.00;;;;;;;;5199176;28;8794;-77
2022/08/12 16:30:41;;;;;;;;;6.50;6.50;;;;;;;;5232129;28;9499;-77
2022/08/12 16:33:15;;;;;;;;;6.75;6.75;;;;;;;;5210277;28;8793;-76
2022/08/12 16:35:48;;;;;;;;;6.00;6.00;;;;;;;;5228785;28;8763;-76
2022/08/12 16:38:22;;;;;;;;;7.25;7.25;;;;;;;;5180692;28;8825;-78
2022/08/12 16:40:53;;;;;;;;;5.75;5.75;;;;;;;;5189644;28;8907;-76
2022/08/12 16:43:25;;;;;;;;;9.00;9.00;;;;;;;;5207231;28;8913;-76
2022/08/12 16:45:58;;;;;;;;;4.75;4.75;;;;;;;;5228175;28;8762;-77
2022/08/12 16:48:29;;;;;;;;;9.50;9.50;;;;;;;;5210309;28;8825;-76
2022/08/12 16:51:19;;;;;;;;;7.50;7.50;;;;;;;;5212652;28;9556;-76
2022/08/12 16:53:50;;;;;;;;;5.00;5.00;;;;;;;;5170419;28;8923;-76
2022/08/12 16:56:22;;;;;;;;;11.50;11.50;;;;;;;;5189590;28;8793;-76
2022/08/12 16:58:53;;;;;;;;;4.75;4.75;;;;;;;;5227343;28;8787;-77
2022/08/12 17:01:24;;;;;;;;;9.25;9.25;;;;;;;;5227586;28;8786;-78
2022/08/12 17:04:06;;;;;;;;;12.00;11.00;;;;;;;;5176879;28;8801;-78
2022/08/12 17:06:42;;;;;;;;;8.50;8.25;;;;;;;;5204652;28;8862;-77
2022/08/12 17:09:14;;;;;;;;;7.50;7.50;;;;;;;;5193559;28;8791;-74
2022/08/12 17:11:48;;;;;;;;;7.00;7.00;;;;;;;;5198609;28;8941;-77
2022/08/12 17:14:21;;;;;;;;;5.75;5.75;;;;;;;;5212541;28;8815;-75
2022/08/12 17:17:11;;;;;;;;;5.75;5.75;;;;;;;;5212279;28;9372;-77
2022/08/12 17:19:45;;;;;;;;;7.25;7.25;;;;;;;;5209532;28;8852;-77
2022/08/12 17:22:16;;;;;;;;;6.50;6.50;;;;;;;;5227252;28;8763;-76
2022/08/12 17:24:48;;;;;;;;;8.50;8.50;;;;;;;;5244457;28;8920;-76
2022/08/12 17:27:20;;;;;;;;;9.25;9.25;;;;;;;;5247727;28;8808;-76
2022/08/12 17:29:54;;;;;;;;;7.00;7.00;;;;;;;;5247961;28;8800;-76
2022/08/12 17:32:25;;;;;;;;;7.00;7.00;;;;;;;;5229930;28;8781;-76
2022/08/12 17:37:47;;;;;;;;;7.00;7.00;;;;;;;;5208936;28;10793;-77